Time;durP1;ratioP1;P1;durP2;ratioP2;P2;SDS_P1;SDS_P2;PMS_P1;PMS_P2;Temp;Humidity;BMP_temperature;BMP_pressure;BME280_temperature;BME280_humidity;BME280_pressure;Samples;Min_cycle;Max_cycle;Signal;HPM_P1;HPM_P2
2021/03/31 00:02:17;;;;;;;37.90;24.60;;;;;;;;;;779202;179;919280;-64
2021/03/31 00:04:43;;;;;;;42.58;25.85;;;;;;;;;;780418;179;919517;-63
2021/03/31 00:07:09;;;;;;;42.37;26.40;;;;;;;;;;777703;179;920636;-65
2021/03/31 00:09:35;;;;;;;43.50;24.87;;;;;;;;;;772014;179;1692849;-64
2021/03/31 00:12:00;;;;;;;35.60;23.87;;;;;;;;;;776484;179;941100;-64
2021/03/31 00:14:26;;;;;;;32.80;25.33;;;;;;;;;;779158;179;918708;-63
2021/03/31 00:16:52;;;;;;;37.03;24.23;;;;;;;;;;776904;179;919353;-62
2021/03/31 00:19:18;;;;;;;37.47;22.65;;;;;;;;;;771978;179;1017762;-64
2021/03/31 00:21:44;;;;;;;39.17;24.70;;;;;;;;;;781859;179;919326;-63
2021/03/31 00:24:10;;;;;;;50.53;23.10;;;;;;;;;;776621;177;919341;-65
2021/03/31 00:26:36;;;;;;;40.67;24.03;;;;;;;;;;781250;179;942658;-63
2021/03/31 00:29:02;;;;;;;41.57;25.23;;;;;;;;;;783893;179;918907;-63
2021/03/31 00:31:27;;;;;;;36.15;23.25;;;;;;;;;;775333;179;918808;-64
2021/03/31 00:33:53;;;;;;;39.17;25.27;;;;;;;;;;777748;179;919338;-64
2021/03/31 00:36:19;;;;;;;38.10;24.52;;;;;;;;;;777725;179;1638225;-64
2021/03/31 00:38:45;;;;;;;33.80;24.53;;;;;;;;;;776304;179;918519;-64
2021/03/31 00:41:11;;;;;;;31.93;20.13;;;;;;;;;;774312;179;919702;-64
2021/03/31 00:43:37;;;;;;;199.52;32.15;;;;;;;;;;776913;179;943759;-63
2021/03/31 00:46:02;;;;;;;41.27;23.10;;;;;;;;;;783267;179;919201;-64
2021/03/31 00:48:28;;;;;;;42.33;25.33;;;;;;;;;;777856;179;919771;-63
2021/03/31 00:50:55;;;;;;;38.47;24.70;;;;;;;;;;776047;179;919851;-63
2021/03/31 00:53:24;;;;;;;34.80;21.83;;;;;;;;;;783365;179;863495;-63
2021/03/31 00:55:49;;;;;;;34.83;23.80;;;;;;;;;;765631;179;2313815;-64
2021/03/31 00:58:15;;;;;;;35.07;24.00;;;;;;;;;;777788;179;919410;-63
2021/03/31 01:00:41;;;;;;;36.97;23.27;;;;;;;;;;778667;179;921980;-63
2021/03/31 01:03:07;;;;;;;34.83;24.17;;;;;;;;;;777176;179;919170;-64
2021/03/31 01:05:34;;;;;;;41.03;23.93;;;;;;;;;;777133;179;919804;-63
2021/03/31 01:08:00;;;;;;;34.50;25.23;;;;;;;;;;771073;179;919200;-62
2021/03/31 01:10:27;;;;;;;37.50;25.20;;;;;;;;;;782799;179;919114;-63
2021/03/31 01:13:05;;;;;;;36.70;23.52;;;;;;;;;;774515;179;1029953;-63
2021/03/31 01:15:33;;;;;;;30.90;21.70;;;;;;;;;;780267;179;919114;-65
2021/03/31 01:18:01;;;;;;;35.37;23.53;;;;;;;;;;776191;179;919324;-65
2021/03/31 01:20:44;;;;;;;41.13;24.20;;;;;;;;;;782901;179;919241;-65
2021/03/31 01:23:26;;;;;;;35.80;24.20;;;;;;;;;;766041;179;925809;-63
2021/03/31 01:26:08;;;;;;;34.43;22.70;;;;;;;;;;782916;179;918150;-65
2021/03/31 01:28:34;;;;;;;30.97;20.47;;;;;;;;;;778627;179;916605;-65
2021/03/31 01:31:00;;;;;;;31.23;21.73;;;;;;;;;;775440;179;1034642;-65
2021/03/31 01:33:31;;;;;;;39.37;25.10;;;;;;;;;;775049;179;886616;-64
2021/03/31 01:35:57;;;;;;;35.03;22.80;;;;;;;;;;779643;179;919641;-64
2021/03/31 01:38:23;;;;;;;41.57;27.30;;;;;;;;;;782340;176;1593757;-65
2021/03/31 01:40:49;;;;;;;32.77;23.67;;;;;;;;;;776219;179;922499;-65
2021/03/31 01:43:15;;;;;;;34.90;24.10;;;;;;;;;;776299;179;918788;-64
2021/03/31 01:45:41;;;;;;;34.80;24.93;;;;;;;;;;782915;179;919788;-64
2021/03/31 01:48:11;;;;;;;38.73;24.80;;;;;;;;;;774524;179;919820;-64
2021/03/31 01:50:37;;;;;;;40.77;25.70;;;;;;;;;;777216;179;921360;-63
2021/03/31 01:53:02;;;;;;;125.77;33.90;;;;;;;;;;776368;179;1731568;-64
2021/03/31 01:55:28;;;;;;;43.10;27.50;;;;;;;;;;778073;179;919065;-64
2021/03/31 01:57:54;;;;;;;36.73;25.07;;;;;;;;;;773261;179;1318528;-64
2021/03/31 02:00:20;;;;;;;43.47;27.77;;;;;;;;;;780374;179;1020728;-64
2021/03/31 02:02:50;;;;;;;36.77;25.10;;;;;;;;;;785728;176;920205;-65
2021/03/31 02:05:16;;;;;;;40.27;24.23;;;;;;;;;;774083;179;921246;-63
2021/03/31 02:07:41;;;;;;;38.80;26.00;;;;;;;;;;777046;179;918874;-64
2021/03/31 02:10:09;;;;;;;42.43;26.87;;;;;;;;;;779307;179;917432;-64
2021/03/31 02:12:35;;;;;;;39.43;27.63;;;;;;;;;;780855;179;919192;-64
2021/03/31 02:15:01;;;;;;;39.97;24.20;;;;;;;;;;775213;179;919781;-64
2021/03/31 02:17:27;;;;;;;40.80;26.33;;;;;;;;;;782699;179;918823;-64
2021/03/31 02:19:52;;;;;;;45.08;25.15;;;;;;;;;;777724;179;918801;-63
2021/03/31 02:22:18;;;;;;;33.53;24.03;;;;;;;;;;780302;179;918466;-64
2021/03/31 02:24:44;;;;;;;41.67;27.17;;;;;;;;;;775842;179;919000;-64
2021/03/31 02:27:10;;;;;;;38.30;25.80;;;;;;;;;;781945;176;1840028;-64
2021/03/31 02:29:36;;;;;;;38.47;24.57;;;;;;;;;;774245;179;920339;-64
2021/03/31 02:32:02;;;;;;;43.25;25.70;;;;;;;;;;776278;179;1021958;-65
2021/03/31 02:34:27;;;;;;;38.63;25.53;;;;;;;;;;779338;179;920188;-64
2021/03/31 02:36:53;;;;;;;45.93;27.27;;;;;;;;;;777420;179;919320;-64
2021/03/31 02:39:20;;;;;;;41.88;26.52;;;;;;;;;;772954;179;1154885;-67
2021/03/31 02:41:46;;;;;;;39.10;24.80;;;;;;;;;;781988;179;919682;-63
2021/03/31 02:44:12;;;;;;;31.77;23.67;;;;;;;;;;780863;179;919422;-66
2021/03/31 02:46:38;;;;;;;40.10;25.50;;;;;;;;;;775738;179;919555;-64
2021/03/31 02:49:04;;;;;;;41.30;24.77;;;;;;;;;;783641;179;919766;-64
2021/03/31 02:51:30;;;;;;;42.60;27.73;;;;;;;;;;775140;179;1021443;-64
2021/03/31 02:53:56;;;;;;;40.07;25.20;;;;;;;;;;779156;178;942717;-65
2021/03/31 02:56:22;;;;;;;39.95;26.67;;;;;;;;;;777409;179;913486;-64
2021/03/31 02:58:48;;;;;;;35.93;23.20;;;;;;;;;;781707;179;920046;-64
2021/03/31 03:01:14;;;;;;;37.00;22.43;;;;;;;;;;774833;179;935325;-64
2021/03/31 03:03:39;;;;;;;39.03;23.10;;;;;;;;;;774611;179;1543510;-64
2021/03/31 03:06:05;;;;;;;36.70;24.45;;;;;;;;;;780985;179;1014952;-63
2021/03/31 03:08:31;;;;;;;40.60;24.70;;;;;;;;;;778690;179;919513;-65
2021/03/31 03:10:57;;;;;;;39.23;23.47;;;;;;;;;;773679;179;920080;-63
2021/03/31 03:13:23;;;;;;;38.93;22.73;;;;;;;;;;782746;179;919720;-64
2021/03/31 03:15:49;;;;;;;40.10;24.20;;;;;;;;;;775726;179;916508;-64
2021/03/31 03:18:15;;;;;;;36.23;24.67;;;;;;;;;;777324;179;913746;-63
2021/03/31 03:20:40;;;;;;;44.20;25.43;;;;;;;;;;782817;179;919298;-65
2021/03/31 03:23:06;;;;;;;42.07;25.60;;;;;;;;;;774101;179;919626;-63
2021/03/31 03:25:32;;;;;;;38.28;24.83;;;;;;;;;;777130;179;922402;-64
2021/03/31 03:27:58;;;;;;;36.47;23.17;;;;;;;;;;774350;179;1123787;-64
2021/03/31 03:30:24;;;;;;;37.70;23.83;;;;;;;;;;784847;179;919596;-65
2021/03/31 03:32:50;;;;;;;40.97;24.80;;;;;;;;;;775533;179;918448;-64
2021/03/31 03:35:16;;;;;;;41.97;25.57;;;;;;;;;;777313;179;919403;-65
2021/03/31 03:37:42;;;;;;;38.00;26.03;;;;;;;;;;779857;179;919055;-64
2021/03/31 03:40:08;;;;;;;37.30;21.90;;;;;;;;;;777001;179;920446;-64
2021/03/31 03:42:34;;;;;;;40.93;24.23;;;;;;;;;;773231;179;918859;-64
2021/03/31 03:45:00;;;;;;;39.03;23.10;;;;;;;;;;783132;179;919022;-64
2021/03/31 03:47:26;;;;;;;38.92;24.52;;;;;;;;;;775931;179;919400;-64
2021/03/31 03:49:52;;;;;;;37.63;25.00;;;;;;;;;;775873;179;918634;-64
2021/03/31 03:52:19;;;;;;;37.25;24.85;;;;;;;;;;778668;179;1021417;-63
2021/03/31 03:54:48;;;;;;;39.73;25.37;;;;;;;;;;777276;176;919309;-65
2021/03/31 03:57:15;;;;;;;39.50;24.97;;;;;;;;;;775750;179;920027;-65
2021/03/31 03:59:41;;;;;;;37.47;21.97;;;;;;;;;;778609;178;942558;-65
2021/03/31 04:02:07;;;;;;;39.17;25.77;;;;;;;;;;785055;179;917770;-65
2021/03/31 04:04:33;;;;;;;37.70;23.73;;;;;;;;;;778560;179;918198;-65
2021/03/31 04:06:59;;;;;;;39.60;24.50;;;;;;;;;;780413;179;919048;-65
2021/03/31 04:09:24;;;;;;;41.27;24.50;;;;;;;;;;784411;179;907806;-65
2021/03/31 04:11:51;;;;;;;37.20;23.33;;;;;;;;;;777202;179;915872;-65
2021/03/31 04:14:16;;;;;;;31.10;23.00;;;;;;;;;;775753;179;919074;-66
2021/03/31 04:16:42;;;;;;;32.00;21.23;;;;;;;;;;777783;179;919585;-65
2021/03/31 04:19:08;;;;;;;35.97;22.47;;;;;;;;;;774978;176;919242;-66
2021/03/31 04:21:34;;;;;;;118.23;27.13;;;;;;;;;;776454;179;918620;-65
2021/03/31 04:23:59;;;;;;;42.33;22.00;;;;;;;;;;774315;179;919540;-67
2021/03/31 04:26:25;;;;;;;72.63;25.70;;;;;;;;;;783129;179;918849;-66
2021/03/31 04:28:51;;;;;;;36.57;24.77;;;;;;;;;;760029;179;4159640;-65
2021/03/31 04:31:17;;;;;;;38.42;24.60;;;;;;;;;;779624;179;919363;-67
2021/03/31 04:33:44;;;;;;;44.53;26.40;;;;;;;;;;780430;179;919390;-68
2021/03/31 04:36:10;;;;;;;79.63;31.40;;;;;;;;;;777404;179;919127;-66
2021/03/31 04:38:36;;;;;;;47.83;28.35;;;;;;;;;;778154;179;919009;-66
2021/03/31 04:41:02;;;;;;;44.37;28.87;;;;;;;;;;780234;179;919181;-66
2021/03/31 04:43:28;;;;;;;55.93;29.87;;;;;;;;;;775568;179;918527;-66
2021/03/31 04:45:57;;;;;;;46.25;28.10;;;;;;;;;;774664;179;922519;-66
2021/03/31 04:48:22;;;;;;;47.67;29.50;;;;;;;;;;777007;179;918306;-66
2021/03/31 04:50:48;;;;;;;51.27;30.60;;;;;;;;;;780720;179;1131356;-67
2021/03/31 04:53:14;;;;;;;58.00;30.80;;;;;;;;;;776920;179;919367;-66
2021/03/31 04:55:40;;;;;;;62.30;34.00;;;;;;;;;;778589;179;917525;-65
2021/03/31 04:58:06;;;;;;;51.80;29.10;;;;;;;;;;782468;179;919053;-65
2021/03/31 05:00:32;;;;;;;54.80;31.37;;;;;;;;;;775595;179;921931;-66
2021/03/31 05:02:57;;;;;;;64.80;34.20;;;;;;;;;;775891;179;919856;-66
2021/03/31 05:05:23;;;;;;;55.13;31.80;;;;;;;;;;779054;179;919503;-66
2021/03/31 05:07:49;;;;;;;65.73;34.73;;;;;;;;;;776813;179;938520;-65
2021/03/31 05:10:15;;;;;;;72.77;37.10;;;;;;;;;;774670;178;919467;-66
2021/03/31 05:12:41;;;;;;;60.23;36.30;;;;;;;;;;779098;178;918874;-66
2021/03/31 05:15:07;;;;;;;63.80;35.03;;;;;;;;;;780599;179;918793;-65
2021/03/31 05:17:33;;;;;;;51.80;34.57;;;;;;;;;;776015;179;977078;-64
2021/03/31 05:19:59;;;;;;;71.30;36.43;;;;;;;;;;779410;179;915672;-64
2021/03/31 05:22:25;;;;;;;59.13;34.63;;;;;;;;;;781121;179;930341;-64
2021/03/31 05:24:50;;;;;;;64.23;35.73;;;;;;;;;;778560;179;918280;-66
2021/03/31 05:27:17;;;;;;;71.60;35.43;;;;;;;;;;776668;179;957946;-64
2021/03/31 05:29:42;;;;;;;68.97;35.67;;;;;;;;;;781802;179;919261;-64
2021/03/31 05:32:08;;;;;;;77.43;40.23;;;;;;;;;;775887;179;919560;-64
2021/03/31 05:34:34;;;;;;;85.90;45.30;;;;;;;;;;778506;179;944426;-64
2021/03/31 05:37:00;;;;;;;88.20;48.50;;;;;;;;;;782639;179;921904;-63
2021/03/31 05:39:26;;;;;;;89.87;50.03;;;;;;;;;;777096;179;936373;-63
2021/03/31 05:41:52;;;;;;;94.07;50.97;;;;;;;;;;774850;179;918686;-66
2021/03/31 05:44:17;;;;;;;105.37;54.40;;;;;;;;;;777417;179;918874;-65
2021/03/31 05:46:43;;;;;;;88.23;51.90;;;;;;;;;;788396;176;816593;-65
2021/03/31 05:49:09;;;;;;;81.05;39.67;;;;;;;;;;776575;179;926512;-64
2021/03/31 05:51:35;;;;;;;92.17;47.80;;;;;;;;;;776902;179;938305;-63
2021/03/31 05:54:01;;;;;;;80.70;45.72;;;;;;;;;;779458;179;919540;-63
2021/03/31 05:56:27;;;;;;;76.87;44.30;;;;;;;;;;776226;179;923151;-63
2021/03/31 05:58:53;;;;;;;86.83;46.43;;;;;;;;;;775373;179;927702;-63
2021/03/31 06:01:19;;;;;;;83.80;44.17;;;;;;;;;;782093;179;920017;-63
2021/03/31 06:03:45;;;;;;;99.10;52.10;;;;;;;;;;776039;179;919510;-63
2021/03/31 06:06:10;;;;;;;93.30;50.20;;;;;;;;;;779103;179;919636;-63
2021/03/31 06:08:37;;;;;;;100.50;59.53;;;;;;;;;;779865;179;919180;-64
2021/03/31 06:11:02;;;;;;;76.47;50.10;;;;;;;;;;778982;179;919696;-63
2021/03/31 06:13:34;;;;;;;74.53;42.40;;;;;;;;;;774714;179;919764;-63
2021/03/31 06:16:00;;;;;;;71.30;45.27;;;;;;;;;;778688;179;918626;-63
2021/03/31 06:18:25;;;;;;;68.47;40.00;;;;;;;;;;779952;179;974660;-63
2021/03/31 06:20:55;;;;;;;63.00;39.30;;;;;;;;;;775353;179;941715;-65
2021/03/31 06:23:35;;;;;;;81.47;52.00;;;;;;;;;;775642;178;919813;-63
2021/03/31 06:26:04;;;;;;;59.77;35.77;;;;;;;;;;778702;179;943293;-64
2021/03/31 06:28:29;;;;;;;104.30;54.00;;;;;;;;;;783412;179;638615;-64
2021/03/31 06:31:10;;;;;;;62.27;44.70;;;;;;;;;;780032;179;918838;-64
2021/03/31 06:33:36;;;;;;;70.33;38.80;;;;;;;;;;777361;179;937888;-63
2021/03/31 06:36:02;;;;;;;88.77;56.53;;;;;;;;;;780710;179;918578;-63
2021/03/31 06:38:37;;;;;;;67.55;44.08;;;;;;;;;;773611;179;1845444;-63
2021/03/31 06:41:03;;;;;;;66.07;39.57;;;;;;;;;;789788;176;914443;-63
2021/03/31 06:43:36;;;;;;;63.03;39.13;;;;;;;;;;776952;179;914729;-63
2021/03/31 06:46:06;;;;;;;56.80;37.13;;;;;;;;;;772886;179;1018996;-63
2021/03/31 06:48:32;;;;;;;66.33;38.53;;;;;;;;;;777345;179;919007;-64
2021/03/31 06:50:57;;;;;;;45.17;31.60;;;;;;;;;;776332;179;917454;-65
2021/03/31 06:53:24;;;;;;;54.60;33.50;;;;;;;;;;780464;179;819850;-65
2021/03/31 06:55:50;;;;;;;51.10;34.00;;;;;;;;;;779601;179;647645;-64
2021/03/31 06:58:16;;;;;;;53.80;33.27;;;;;;;;;;783861;179;626377;-65
2021/03/31 07:00:42;;;;;;;52.00;32.10;;;;;;;;;;778706;179;1048832;-67
2021/03/31 07:03:08;;;;;;;56.83;34.30;;;;;;;;;;783864;179;623635;-64
2021/03/31 07:05:34;;;;;;;53.93;31.33;;;;;;;;;;779349;179;630020;-64
2021/03/31 07:08:02;;;;;;;49.67;29.13;;;;;;;;;;786875;179;634311;-64
2021/03/31 07:10:28;;;;;;;40.33;27.93;;;;;;;;;;779580;179;636551;-64
2021/03/31 07:12:55;;;;;;;49.13;32.17;;;;;;;;;;780773;179;622173;-64
2021/03/31 07:15:20;;;;;;;53.77;30.00;;;;;;;;;;781071;179;658202;-66
2021/03/31 07:17:48;;;;;;;49.93;31.30;;;;;;;;;;781538;179;669629;-64
2021/03/31 07:20:12;;;;;;;45.20;29.50;;;;;;;;;;777977;179;641654;-67
2021/03/31 07:22:38;;;;;;;42.93;27.67;;;;;;;;;;785289;179;650142;-64
2021/03/31 07:25:05;;;;;;;58.27;26.37;;;;;;;;;;783740;179;625306;-66
2021/03/31 07:27:31;;;;;;;42.87;25.60;;;;;;;;;;781407;179;668089;-65
2021/03/31 07:32:29;;;;;;;56.57;33.37;;;;;;;;;;783372;179;630243;-64
2021/03/31 07:34:54;;;;;;;72.03;39.40;;;;;;;;;;783693;179;628607;-64
2021/03/31 07:37:20;;;;;;;50.33;29.80;;;;;;;;;;780340;179;631549;-65
2021/03/31 07:39:46;;;;;;;40.70;28.00;;;;;;;;;;786984;179;614584;-65
2021/03/31 07:42:12;;;;;;;36.53;24.60;;;;;;;;;;780341;179;634425;-66
2021/03/31 07:44:38;;;;;;;44.35;27.42;;;;;;;;;;781632;179;629933;-66
2021/03/31 07:47:04;;;;;;;38.27;23.80;;;;;;;;;;777859;179;847945;-66
2021/03/31 07:49:32;;;;;;;44.47;24.43;;;;;;;;;;781121;179;669371;-65
2021/03/31 07:51:59;;;;;;;37.90;23.63;;;;;;;;;;779854;179;620748;-65
2021/03/31 07:54:25;;;;;;;43.20;25.73;;;;;;;;;;783477;179;618832;-65
2021/03/31 07:56:51;;;;;;;42.13;23.30;;;;;;;;;;784924;179;628915;-66
2021/03/31 07:59:18;;;;;;;36.57;24.23;;;;;;;;;;783781;179;630138;-67
2021/03/31 08:01:49;;;;;;;37.10;22.70;;;;;;;;;;781652;179;622341;-66
2021/03/31 08:04:15;;;;;;;31.23;21.07;;;;;;;;;;780838;179;633111;-65
2021/03/31 08:06:41;;;;;;;37.03;22.13;;;;;;;;;;784991;179;641595;-65
2021/03/31 08:09:07;;;;;;;36.30;23.00;;;;;;;;;;752262;179;5434233;-64
2021/03/31 08:11:48;;;;;;;36.53;22.07;;;;;;;;;;780224;179;667804;-66
2021/03/31 08:14:14;;;;;;;36.37;23.20;;;;;;;;;;779470;179;626577;-66
2021/03/31 08:16:48;;;;;;;33.50;23.87;;;;;;;;;;784832;179;643138;-65
2021/03/31 08:19:15;;;;;;;33.47;22.37;;;;;;;;;;779456;179;639357;-65
2021/03/31 08:21:40;;;;;;;34.57;21.90;;;;;;;;;;779461;179;633465;-65
2021/03/31 08:24:06;;;;;;;34.77;20.90;;;;;;;;;;778658;179;624786;-64
2021/03/31 08:26:43;;;;;;;39.80;21.50;;;;;;;;;;786314;179;670348;-65
2021/03/31 08:29:10;;;;;;;35.50;23.17;;;;;;;;;;779262;179;964772;-64
2021/03/31 08:31:37;;;;;;;34.67;21.23;;;;;;;;;;781999;179;623695;-64
2021/03/31 08:34:03;;;;;;;35.07;22.30;;;;;;;;;;778546;179;647103;-64
2021/03/31 08:36:28;;;;;;;41.60;23.00;;;;;;;;;;784059;179;642421;-64
2021/03/31 08:38:54;;;;;;;33.70;20.60;;;;;;;;;;778396;179;613203;-64
2021/03/31 08:41:20;;;;;;;32.50;22.20;;;;;;;;;;780544;179;665018;-65
2021/03/31 08:43:47;;;;;;;27.90;18.30;;;;;;;;;;782749;179;679023;-64
2021/03/31 08:46:12;;;;;;;36.20;19.83;;;;;;;;;;783330;177;629405;-65
2021/03/31 08:48:38;;;;;;;35.93;21.03;;;;;;;;;;781653;179;634408;-69
2021/03/31 08:51:04;;;;;;;37.53;20.80;;;;;;;;;;785826;179;625444;-65
2021/03/31 08:53:30;;;;;;;31.57;19.40;;;;;;;;;;783232;179;671444;-65
2021/03/31 08:55:56;;;;;;;30.60;20.60;;;;;;;;;;781739;179;642835;-65
2021/03/31 08:58:22;;;;;;;28.10;18.53;;;;;;;;;;780704;179;634265;-65
2021/03/31 09:00:51;;;;;;;32.70;19.67;;;;;;;;;;784812;179;624034;-65
2021/03/31 09:03:14;;;;;;;35.90;20.30;;;;;;;;;;782508;179;634177;-66
2021/03/31 09:05:40;;;;;;;34.43;21.10;;;;;;;;;;778821;179;664633;-65
2021/03/31 09:08:08;;;;;;;31.77;20.27;;;;;;;;;;784281;179;636716;-67
2021/03/31 09:10:31;;;;;;;29.43;19.20;;;;;;;;;;778945;179;627138;-65
2021/03/31 09:12:57;;;;;;;32.10;21.07;;;;;;;;;;781520;179;644519;-65
2021/03/31 09:15:23;;;;;;;32.03;20.80;;;;;;;;;;780453;179;930143;-65
2021/03/31 09:17:49;;;;;;;31.20;20.13;;;;;;;;;;783164;179;636809;-65
2021/03/31 09:20:15;;;;;;;37.58;19.45;;;;;;;;;;780171;179;641186;-66
2021/03/31 09:22:41;;;;;;;37.10;21.03;;;;;;;;;;783795;179;624160;-63
2021/03/31 09:25:08;;;;;;;35.93;19.73;;;;;;;;;;780051;179;626235;-64
2021/03/31 09:27:33;;;;;;;29.00;19.63;;;;;;;;;;779893;179;621541;-65
2021/03/31 09:30:02;;;;;;;30.90;19.30;;;;;;;;;;779931;179;639133;-66
2021/03/31 09:32:33;;;;;;;32.23;19.23;;;;;;;;;;783364;179;627881;-64
2021/03/31 09:34:54;;;;;;;33.00;18.40;;;;;;;;;;781360;179;637405;-64
2021/03/31 09:37:20;;;;;;;28.83;16.50;;;;;;;;;;777044;179;662132;-65
2021/03/31 09:39:46;;;;;;;28.37;17.57;;;;;;;;;;784506;179;643412;-65
2021/03/31 09:42:15;;;;;;;40.33;18.27;;;;;;;;;;780465;179;651985;-66
2021/03/31 09:44:41;;;;;;;28.33;16.90;;;;;;;;;;782934;179;625091;-65
2021/03/31 09:47:07;;;;;;;33.93;19.33;;;;;;;;;;779133;179;626820;-65
2021/03/31 09:49:33;;;;;;;29.50;18.10;;;;;;;;;;784551;179;628867;-64
2021/03/31 09:52:00;;;;;;;35.83;19.63;;;;;;;;;;779100;179;628738;-65
2021/03/31 09:54:24;;;;;;;32.40;19.67;;;;;;;;;;781763;179;617402;-65
2021/03/31 09:56:50;;;;;;;38.50;20.60;;;;;;;;;;783554;179;637515;-66
2021/03/31 09:59:16;;;;;;;33.03;19.23;;;;;;;;;;785312;179;621293;-65
2021/03/31 10:01:42;;;;;;;32.40;18.47;;;;;;;;;;782541;179;648582;-65
2021/03/31 10:04:08;;;;;;;33.07;20.77;;;;;;;;;;786507;179;656270;-64
2021/03/31 10:06:34;;;;;;;36.17;20.70;;;;;;;;;;780565;179;636767;-67
2021/03/31 10:08:59;;;;;;;31.43;20.07;;;;;;;;;;781418;178;642658;-65
2021/03/31 10:11:26;;;;;;;30.95;18.77;;;;;;;;;;785702;179;627674;-66
2021/03/31 10:13:52;;;;;;;32.03;17.90;;;;;;;;;;785326;176;629903;-65
2021/03/31 10:16:18;;;;;;;32.08;16.65;;;;;;;;;;782379;179;645281;-66
2021/03/31 10:18:45;;;;;;;24.90;16.00;;;;;;;;;;779640;179;644343;-66
2021/03/31 10:21:09;;;;;;;30.13;15.47;;;;;;;;;;788329;179;630080;-66
2021/03/31 10:23:35;;;;;;;26.90;15.67;;;;;;;;;;780387;179;626267;-69
2021/03/31 10:26:07;;;;;;;30.63;17.23;;;;;;;;;;781392;179;627980;-66
2021/03/31 10:28:33;;;;;;;34.80;17.60;;;;;;;;;;785254;179;636300;-66
2021/03/31 10:30:59;;;;;;;28.57;16.30;;;;;;;;;;780684;179;623817;-66
2021/03/31 10:33:25;;;;;;;34.53;17.93;;;;;;;;;;779603;179;629324;-65
2021/03/31 10:35:53;;;;;;;33.67;16.63;;;;;;;;;;776499;179;756361;-65
2021/03/31 10:38:23;;;;;;;28.67;15.60;;;;;;;;;;785024;179;627392;-65
2021/03/31 10:41:09;;;;;;;28.53;15.10;;;;;;;;;;778244;179;670578;-65
2021/03/31 10:51:10;;;;;;;25.53;14.90;;;;;;;;;;784958;179;628968;-66
2021/03/31 10:53:30;;;;;;;25.20;13.37;;;;;;;;;;782838;179;706016;-65
2021/03/31 10:55:55;;;;;;;26.63;14.63;;;;;;;;;;781546;179;636628;-66
2021/03/31 10:58:21;;;;;;;26.87;14.30;;;;;;;;;;775922;179;2224324;-66
2021/03/31 11:00:47;;;;;;;18.07;10.97;;;;;;;;;;782004;179;709436;-65
2021/03/31 11:03:13;;;;;;;22.03;11.07;;;;;;;;;;780085;179;635602;-65
2021/03/31 11:05:39;;;;;;;20.37;12.23;;;;;;;;;;782152;179;653608;-65
2021/03/31 11:08:06;;;;;;;25.43;11.27;;;;;;;;;;783993;179;623621;-66
2021/03/31 11:10:31;;;;;;;22.23;11.70;;;;;;;;;;784588;177;627915;-65
2021/03/31 11:12:56;;;;;;;20.80;11.57;;;;;;;;;;783489;179;634362;-66
2021/03/31 11:15:24;;;;;;;22.03;11.80;;;;;;;;;;784426;179;682124;-66
2021/03/31 11:17:59;;;;;;;20.20;11.37;;;;;;;;;;783120;179;628550;-66
2021/03/31 11:20:31;;;;;;;19.23;10.53;;;;;;;;;;782114;179;670792;-66
2021/03/31 11:27:47;;;;;;;18.43;8.73;;;;;;;;;;780828;179;718246;-65
2021/03/31 11:30:14;;;;;;;15.27;8.33;;;;;;;;;;782360;179;616615;-66
2021/03/31 11:32:40;;;;;;;19.40;10.30;;;;;;;;;;779766;179;639916;-65
2021/03/31 11:35:06;;;;;;;19.43;8.70;;;;;;;;;;784231;179;617687;-65
2021/03/31 11:37:32;;;;;;;17.40;9.57;;;;;;;;;;780271;179;689589;-65
2021/03/31 11:39:57;;;;;;;18.73;8.70;;;;;;;;;;782156;179;726571;-66
2021/03/31 11:42:23;;;;;;;15.80;9.20;;;;;;;;;;784527;179;618299;-65
2021/03/31 11:44:49;;;;;;;18.87;9.73;;;;;;;;;;783029;179;619842;-65
2021/03/31 11:47:15;;;;;;;23.33;10.27;;;;;;;;;;784019;179;623469;-65
2021/03/31 11:49:41;;;;;;;14.17;7.63;;;;;;;;;;782209;179;825214;-65
2021/03/31 11:52:07;;;;;;;15.00;8.47;;;;;;;;;;781396;179;638030;-65
2021/03/31 11:54:32;;;;;;;14.30;7.53;;;;;;;;;;778882;179;630279;-65
2021/03/31 11:56:58;;;;;;;12.70;8.73;;;;;;;;;;785586;179;710775;-65
2021/03/31 11:59:24;;;;;;;14.60;9.40;;;;;;;;;;778887;179;620226;-66
2021/03/31 12:01:50;;;;;;;12.00;7.33;;;;;;;;;;780784;179;631899;-67
2021/03/31 12:04:16;;;;;;;16.47;9.50;;;;;;;;;;779401;179;666849;-65
2021/03/31 12:06:42;;;;;;;14.70;7.10;;;;;;;;;;779146;176;665778;-65
2021/03/31 12:09:09;;;;;;;19.93;8.33;;;;;;;;;;781196;179;631931;-65
2021/03/31 12:11:33;;;;;;;10.53;5.73;;;;;;;;;;780392;179;646418;-66
2021/03/31 12:13:59;;;;;;;13.17;8.00;;;;;;;;;;783897;179;617184;-66
2021/03/31 12:16:25;;;;;;;14.30;9.03;;;;;;;;;;779455;179;623992;-68
2021/03/31 12:18:51;;;;;;;13.43;8.50;;;;;;;;;;781007;179;635149;-66
2021/03/31 12:21:18;;;;;;;17.10;7.83;;;;;;;;;;780842;177;660618;-67
2021/03/31 12:23:43;;;;;;;12.20;6.87;;;;;;;;;;780554;179;629766;-68
2021/03/31 12:26:10;;;;;;;13.10;5.90;;;;;;;;;;776690;179;627194;-65
2021/03/31 12:28:36;;;;;;;19.80;7.53;;;;;;;;;;784759;179;616289;-66
2021/03/31 12:31:01;;;;;;;11.00;6.60;;;;;;;;;;777545;179;623687;-66
2021/03/31 12:33:30;;;;;;;13.53;6.60;;;;;;;;;;777684;178;741651;-65
2021/03/31 12:36:04;;;;;;;10.80;7.07;;;;;;;;;;777451;179;702703;-67
2021/03/31 12:38:30;;;;;;;14.00;7.00;;;;;;;;;;783591;179;635753;-66
2021/03/31 12:40:56;;;;;;;15.53;7.50;;;;;;;;;;778445;179;779093;-65
2021/03/31 12:43:22;;;;;;;14.03;8.50;;;;;;;;;;773869;179;1175921;-65
2021/03/31 12:45:48;;;;;;;14.53;7.43;;;;;;;;;;780120;179;635280;-64
2021/03/31 12:48:13;;;;;;;14.73;9.10;;;;;;;;;;777726;176;655080;-66
2021/03/31 12:50:40;;;;;;;19.30;9.40;;;;;;;;;;778562;179;627033;-66
2021/03/31 12:53:32;;;;;;;18.60;9.00;;;;;;;;;;776009;179;660891;-66
2021/03/31 12:55:52;;;;;;;18.30;8.43;;;;;;;;;;777224;179;650706;-66
2021/03/31 12:58:19;;;;;;;12.83;8.53;;;;;;;;;;779105;179;699708;-67
2021/03/31 13:00:44;;;;;;;18.80;9.40;;;;;;;;;;778017;179;664640;-63
2021/03/31 13:03:09;;;;;;;12.50;8.07;;;;;;;;;;783107;179;635107;-63
2021/03/31 13:05:36;;;;;;;17.40;9.10;;;;;;;;;;783671;179;617217;-65
2021/03/31 13:08:01;;;;;;;20.33;9.77;;;;;;;;;;776084;179;816915;-65
2021/03/31 13:10:27;;;;;;;21.47;11.20;;;;;;;;;;779230;179;679479;-65
2021/03/31 13:12:56;;;;;;;26.53;10.07;;;;;;;;;;776345;179;635117;-67
2021/03/31 13:15:23;;;;;;;14.63;7.37;;;;;;;;;;781888;179;619032;-66
2021/03/31 13:18:10;;;;;;;16.53;7.73;;;;;;;;;;774001;179;865554;-64
2021/03/31 13:23:05;;;;;;;13.63;8.10;;;;;;;;;;775094;179;701293;-67
2021/03/31 13:25:30;;;;;;;12.83;6.80;;;;;;;;;;785130;179;641762;-65
2021/03/31 13:30:41;;;;;;;15.57;6.70;;;;;;;;;;756365;179;629429;-66
2021/03/31 13:33:07;;;;;;;14.00;7.93;;;;;;;;;;779542;178;633775;-66
2021/03/31 13:35:37;;;;;;;15.60;8.43;;;;;;;;;;776927;179;621494;-66
2021/03/31 13:38:11;;;;;;;11.10;7.23;;;;;;;;;;782154;179;931490;-68
2021/03/31 13:40:25;;;;;;;12.80;7.03;;;;;;;;;;771462;179;1644853;-66
2021/03/31 13:42:51;;;;;;;13.17;6.27;;;;;;;;;;781949;179;633080;-66
2021/03/31 13:45:17;;;;;;;13.93;8.13;;;;;;;;;;779886;179;626044;-65
2021/03/31 13:47:54;;;;;;;15.70;6.93;;;;;;;;;;778776;178;735150;-66
2021/03/31 13:50:20;;;;;;;14.23;7.40;;;;;;;;;;775876;179;640091;-66
2021/03/31 13:52:48;;;;;;;11.57;5.93;;;;;;;;;;776842;179;858071;-65
2021/03/31 13:55:13;;;;;;;12.80;6.97;;;;;;;;;;782132;179;639359;-65
2021/03/31 13:57:41;;;;;;;12.33;7.60;;;;;;;;;;780820;179;630316;-66
2021/03/31 14:00:03;;;;;;;11.50;6.63;;;;;;;;;;778052;179;641415;-67
2021/03/31 14:02:30;;;;;;;15.88;7.62;;;;;;;;;;781350;179;629229;-69
2021/03/31 14:04:55;;;;;;;14.80;7.77;;;;;;;;;;784394;179;633173;-66
2021/03/31 14:07:21;;;;;;;14.20;7.90;;;;;;;;;;783223;179;633473;-66
2021/03/31 14:09:47;;;;;;;14.60;6.13;;;;;;;;;;783568;179;621817;-66
2021/03/31 14:12:14;;;;;;;11.97;5.87;;;;;;;;;;782777;179;658075;-66
2021/03/31 14:14:38;;;;;;;11.40;6.57;;;;;;;;;;780605;179;655982;-66
2021/03/31 14:17:08;;;;;;;10.70;6.90;;;;;;;;;;775446;179;1342388;-64
2021/03/31 14:19:32;;;;;;;16.20;7.17;;;;;;;;;;769725;179;2359431;-65
2021/03/31 14:21:56;;;;;;;13.40;7.10;;;;;;;;;;777005;179;662493;-67
2021/03/31 14:24:22;;;;;;;11.95;6.70;;;;;;;;;;780309;179;646981;-66